Ship Status Report: callsign BAREU51

sailwx.info

Track history (hours):
 
Tides and Currents Weather Stations Pressure Air Temp Water Temp Dewpoint Dewpoint Depression Visibility Wind Speed Wind Dir Waves Ship Positions

Callsign BAREU51 (name unknown)

Last reported at 2015-Jul-01 06:00 UTC. Time now 2015-Jul-01 06:34 UTC.
Position N 41°42' E 009°54'.

Barometer 1020.0 mb
Air temperature 24.7 ° C

Date/timePositionNaut miles runAvg speedWind from/ knotsBaromVisibWave heightAir tempDewpointWater temp
2015-Jul-01 06:00N 41°42' E 009°54'2424.4 1020.0 24.7
2015-Jul-01 05:00N 41°18' E 010°00'2424.4 1019.7 23.8
2015-Jul-01 04:00N 40°54' E 010°06'2424.4 1019.3 23.4
2015-Jul-01 03:00N 40°30' E 010°12'2424.0 1019.5 23.9
2015-Jul-01 02:00N 40°06' E 010°12'2424.0 1019.4 24.2
2015-Jul-01 01:00N 39°42' E 010°12'2424.4 1019.6 24.2
2015-Jul-01 00:00N 39°18' E 010°18'1818.0 1019.7 24.4
2015-Jun-30 23:00N 39°00' E 010°18'2424.5 1019.8 24.5
2015-Jun-30 22:00N 38°36' E 010°24'2424.0 1019.8 23.8
2015-Jun-30 21:00N 38°12' E 010°24'2424.5 1019.4 23.7
2015-Jun-30 20:00N 37°48' E 010°30'2424.0 1018.7 23.5
2015-Jun-30 19:00N 37°24' E 010°30'2424.5 1018.0 23.1
2015-Jun-30 18:00N 37°00' E 010°24'12 1.7 1017.1 23.8
2015-Jun-30 11:00N 36°48' E 010°24'2424.5 1020.1 26.1
2015-Jun-30 10:00N 37°12' E 010°30'1818.0 1020.0 24.2
2015-Jun-30 09:00N 37°30' E 010°30'2625.8 1020.0 23.8
2015-Jun-30 08:00N 37°54' E 010°18'2424.5 1019.7 23.9
2015-Jun-30 07:00N 38°18' E 010°12'2424.0 1019.6 23.5
2015-Jun-30 06:00N 38°42' E 010°12'1818.0 1019.2 24.0
2015-Jun-30 05:00N 39°00' E 010°12'2424.0 1018.6 23.7
2015-Jun-30 04:00N 39°24' E 010°12'2424.0 1018.0 23.7
2015-Jun-30 03:00N 39°48' E 010°12'2424.0 1018.1 23.9
2015-Jun-30 02:00N 40°12' E 010°12'2424.4 1018.3 23.5
2015-Jun-30 01:00N 40°36' E 010°06'2424.0 1018.6 23.3
2015-Jun-30 00:00N 41°00' E 010°06'1918.6 1019.1 23.1
2015-Jun-29 23:00N 41°18' E 010°00'2424.4 1019.1 23.2
2015-Jun-29 22:00N 41°42' E 009°54'2424.4 1019.3 23.8
2015-Jun-29 21:00N 42°06' E 009°48'2424.4 1019.0 23.9
2015-Jun-29 20:00N 42°30' E 009°42'2424.4 1018.4 25.0
2015-Jun-29 19:00N 42°54' E 009°36'2424.4 1018.0 25.1
2015-Jun-29 18:00N 43°18' E 009°30'2625.5 1018.4 25.5
2015-Jun-29 17:00N 43°42' E 009°18'3131.2 1018.4 25.0
2015-Jun-29 16:00N 44°12' E 009°06'15 2.5 1018.5 25.3
2015-Jun-29 10:00N 44°24' E 008°54'1514.8 1020.8 26.2
2015-Jun-29 09:00N 44°12' E 009°06'2424.4 1020.2 25.0
2015-Jun-29 08:00N 43°48' E 009°12'2020.0 1019.7 24.9
2015-Jun-29 07:00N 43°30' E 009°24'2625.5 1019.2 24.5
2015-Jun-29 06:00N 43°06' E 009°36'2424.4 1019.0 24.1
2015-Jun-29 05:00N 42°42' E 009°42'2424.4 1018.7 23.7
2015-Jun-29 04:00N 42°18' E 009°48'1818.0 1018.0 23.0
2015-Jun-29 03:00N 42°00' E 009°48'2424.4 1018.1 22.7
2015-Jun-29 02:00N 41°36' E 009°54'2424.4 1017.9 22.5
2015-Jun-29 01:00N 41°12' E 010°00'2424.4 1018.2 22.4
2015-Jun-29 00:00N 40°48' E 010°06'1918.6 1018.1 22.3
2015-Jun-28 23:00N 40°30' E 010°12'2424.0 1018.2 23.1
2015-Jun-28 22:00N 40°06' E 010°12'2424.4 1017.9 23.3
2015-Jun-28 21:00N 39°42' E 010°18'3030.0 1017.1 23.5
2015-Jun-28 20:00N 39°12' E 010°18'2424.4 1016.6 24.1
2015-Jun-28 19:00N 38°48' E 010°24'3030.0 1015.9 24.8
2015-Jun-28 18:00N 38°18' E 010°24'2424.0 1015.4 23.7
2015-Jun-28 17:00N 37°54' E 010°24'3030.4 1015.4 23.9
2015-Jun-28 16:00N 37°24' E 010°30'2424.0 1015.0 23.9
2015-Jun-28 15:00N 37°00' E 010°30'15 1.9 1014.7 26.0
2015-Jun-28 07:00N 36°48' E 010°18'1515.4 1018.2 25.6
2015-Jun-28 06:00N 37°00' E 010°30'2424.0 1017.0 22.5
2015-Jun-28 05:00N 37°24' E 010°30'1918.6 1016.9 22.3
2015-Jun-28 04:00N 37°42' E 010°24'2625.8 1016.5 22.0
2015-Jun-28 03:00N 38°06' E 010°12'2424.5 1015.9 21.9
2015-Jun-28 02:00N 38°30' E 010°06'2020.3 1016.1 23.3
2015-Jun-28 01:00N 38°48' E 009°54'2424.4 1016.2 24.8
2015-Jun-28 00:00N 39°12' E 009°48'2424.0 1016.2 24.6
2015-Jun-27 23:00N 39°36' E 009°48'2424.4 1016.0 23.6
2015-Jun-27 22:00N 40°00' E 009°54'2424.0 1016.3 23.5
2015-Jun-27 21:00N 40°24' E 009°54'2424.0 1016.4 23.4
2015-Jun-27 20:00N 40°48' E 009°54'1818.0 1016.1 23.4
2015-Jun-27 19:00N 41°06' E 009°54'3030.0 1016.2 23.4
2015-Jun-27 18:00N 41°36' E 009°54'2424.4 1014.0 23.8
2015-Jun-27 17:00N 42°00' E 009°48'3030.3 1016.0 25.2
2015-Jun-27 16:00N 42°30' E 009°42'2424.4 1016.3 24.6
2015-Jun-27 15:00N 42°54' E 009°36'3131.3 1017.1 24.7
2015-Jun-27 14:00N 43°24' E 009°24'2625.5 1017.1 23.7
2015-Jun-27 13:00N 43°48' E 009°12'2625.5 1017.1 23.8
2015-Jun-27 12:00N 44°12' E 009°00'12 0.7 1017.2 24.2
2015-Jun-26 18:00N 44°24' E 009°00'1918.5 1018.3 24.1
2015-Jun-26 17:00N 44°06' E 009°06'2625.5 1017.6 23.5
2015-Jun-26 16:00N 43°42' E 009°18'2625.5 1018.0 24.6
2015-Jun-26 15:00N 43°18' E 009°30'1918.5 1018.3 24.4
2015-Jun-26 14:00N 43°00' E 009°36'2424.4 1018.6 24.0
2015-Jun-26 13:00N 42°36' E 009°42'2424.4 1018.9 24.4
2015-Jun-26 12:00N 42°12' E 009°48'2424.0 1019.1 24.0
2015-Jun-26 11:00N 41°48' E 009°48'2424.0 1019.9 24.6
2015-Jun-26 10:00N 41°24' E 009°48'1918.6 1019.9 23.5
2015-Jun-26 09:00N 41°06' E 009°54'2424.0 1019.4 23.2
2015-Jun-26 08:00N 40°42' E 009°54'2424.0 1018.8 23.4
2015-Jun-26 07:00N 40°18' E 009°54'2424.0 1019.2 23.0
2015-Jun-26 06:00N 39°54' E 009°54'2424.4 1018.6 23.3
2015-Jun-26 05:00N 39°30' E 009°48'3030.0 1018.2 22.7
2015-Jun-26 04:00N 39°00' E 009°48'2625.8 1017.5 22.1
2015-Jun-26 03:00N 38°36' E 010°00'2625.8 1018.0 21.9
2015-Jun-26 02:00N 38°12' E 010°12'3131.5 1017.8 22.0
2015-Jun-26 01:00N 37°42' E 010°24'2424.5 1018.2 22.0
2015-Jun-26 00:00N 37°18' E 010°30'2424.5 1018.3 22.1
2015-Jun-25 23:00N 36°54' E 010°24'8 0.9 1019.2 22.2
2015-Jun-25 14:00N 36°48' E 010°18'1515.4 1018.9 24.6
2015-Jun-25 13:00N 37°00' E 010°30'3030.0 1019.3 24.8
2015-Jun-25 12:00N 37°30' E 010°30'2625.8 1019.3 24.7
2015-Jun-25 11:00N 37°54' E 010°18'2424.5 1019.3 24.2
2015-Jun-25 10:00N 38°18' E 010°12'2625.8 1019.4 23.5
2015-Jun-25 09:00N 38°42' E 010°00'2625.8 1019.3 23.2
2015-Jun-25 08:00N 39°06' E 009°48'2424.0 1019.2 23.1
2015-Jun-25 07:00N 39°30' E 009°48'2424.4 1019.8 23.4
2015-Jun-25 06:00N 39°54' E 009°54'2424.0 1020.0 23.6
2015-Jun-25 05:00N 40°18' E 009°54'3030.3 1019.8 22.2
2015-Jun-25 04:00N 40°48' E 010°00'4824.1 1019.8 21.8
2015-Jun-25 02:00N 41°36' E 009°54'3030.3 1019.4 21.5
2015-Jun-25 01:00N 42°06' E 009°48'2424.4 1019.7 22.6
2015-Jun-25 00:00N 42°30' E 009°42'2424.4 1019.7 22.9
2015-Jun-24 23:00N 42°54' E 009°36'2625.5 1019.2 23.3
2015-Jun-24 22:00N 43°18' E 009°24'2424.4 1019.1 23.3
2015-Jun-24 21:00N 43°42' E 009°18'2625.5 1019.9 23.4
2015-Jun-24 20:00N 44°06' E 009°06'20 3.3 1019.7 23.1
2015-Jun-24 14:00N 44°24' E 008°54'1514.8 1017.7 26.0
2015-Jun-24 13:00N 44°12' E 009°06'2424.4 1017.4 24.3
2015-Jun-24 12:00N 43°48' E 009°12'2020.0 1018.1 23.4
2015-Jun-24 11:00N 43°30' E 009°24'2625.5 1017.6 22.8
2015-Jun-24 10:00N 43°06' E 009°36'2424.4 1016.3 23.0
2015-Jun-24 09:00N 42°42' E 009°42'2424.4 1014.9 22.7
2015-Jun-24 08:00N 42°18' E 009°48'1818.0 1013.8 22.8
2015-Jun-24 07:00N 42°00' E 009°48'2424.4 1012.4 23.2
2015-Jun-24 06:00N 41°36' E 009°54'2424.0 1010.8 22.0
2015-Jun-24 05:00N 41°12' E 009°54'2424.4 1010.9 22.7
2015-Jun-24 04:00N 40°48' E 010°00'1818.0 1011.2 23.6
2015-Jun-24 03:00N 40°30' E 010°00'2424.4 1011.1 23.8
2015-Jun-24 02:00N 40°06' E 009°54'2424.0 1011.5 23.0
2015-Jun-24 01:00N 39°42' E 009°54'2424.4 1010.4 24.7
2015-Jun-24 00:00N 39°18' E 009°48'1918.6 1011.3 24.4
2015-Jun-23 23:00N 39°00' E 009°54'2424.5 1011.7 23.1
2015-Jun-23 22:00N 38°36' E 010°00'2625.8 1012.6 22.3
2015-Jun-23 21:00N 38°12' E 010°12'1918.6 1013.0 22.4
2015-Jun-23 20:00N 37°54' E 010°18'2625.8 1012.5 22.4
2015-Jun-23 19:00N 37°30' E 010°30'2424.0 1012.0 22.8
2015-Jun-23 18:00N 37°06' E 010°30'13 1.6 1011.5 24.7
2015-Jun-23 10:00N 36°54' E 010°24'1918.6 1012.6 28.9
2015-Jun-23 09:00N 37°12' E 010°30'2424.5 1012.8 24.4
2015-Jun-23 08:00N 37°36' E 010°24'2424.5 1012.4 22.9
2015-Jun-23 07:00N 38°00' E 010°18'2020.3 1012.1 22.5
2015-Jun-23 06:00N 38°18' E 010°06'2424.5 1012.6 22.3
2015-Jun-23 05:00N 38°42' E 010°00'2625.8 1012.7 22.1
2015-Jun-23 04:00N 39°06' E 009°48'2424.0 1013.1 21.6
2015-Jun-23 03:00N 39°30' E 009°48'1918.6 1012.6 22.2
2015-Jun-23 02:00N 39°48' E 009°54'2424.0 1013.0 22.0
2015-Jun-23 01:00N 40°12' E 009°54'2424.4 1013.6 22.1
2015-Jun-23 00:00N 40°36' E 010°00'2424.4 1013.9 22.0
2015-Jun-22 23:00N 41°00' E 009°54'2424.0 1014.3 22.0
2015-Jun-22 22:00N 41°24' E 009°54'2424.4 1012.7 22.2
2015-Jun-22 21:00N 41°48' E 009°48'1818.0 1012.6 23.3
2015-Jun-22 20:00N 42°06' E 009°48'2424.4 1013.8 22.5
2015-Jun-22 19:00N 42°30' E 009°42'2424.4 1013.5 22.6
2015-Jun-22 18:00N 42°54' E 009°36'2424.4 1013.7 23.0
2015-Jun-22 17:00N 43°18' E 009°30'2625.5 1014.2 23.2
2015-Jun-22 16:00N 43°42' E 009°18'3131.2 1013.2 22.6
2015-Jun-22 15:00N 44°12' E 009°06'15 3.7 1013.6 23.8
2015-Jun-22 11:00N 44°24' E 008°54'0 0.0 1018.2 22.8
2015-Jun-22 10:00N 44°24' E 008°54'1514.8 1018.0 21.2
2015-Jun-22 09:00N 44°12' E 009°06'2424.4 1016.7 24.6
2015-Jun-22 08:00N 43°48' E 009°12'2020.0 1016.9 24.3
2015-Jun-22 07:00N 43°30' E 009°24'2625.5 1016.8 24.2
2015-Jun-22 06:00N 43°06' E 009°36'2424.4 1016.8 23.2
2015-Jun-22 05:00N 42°42' E 009°42'2424.4 1016.9 22.6
2015-Jun-22 04:00N 42°18' E 009°48'2424.0 1017.0 21.3
2015-Jun-22 03:00N 41°54' E 009°48'1918.5 1016.8 21.1
2015-Jun-22 02:00N 41°36' E 009°54'2424.0 1017.0 21.5
2015-Jun-22 01:00N 41°12' E 009°54'2424.4 1017.2 21.9
2015-Jun-22 00:00N 40°48' E 010°00'2424.4 1017.5 21.7
2015-Jun-21 23:00N 40°24' E 009°54'2424.0 1017.8 21.7
2015-Jun-21 22:00N 40°00' E 009°54'2424.4 1018.1 22.3
2015-Jun-21 21:00N 39°36' E 009°48'1818.0 1018.5 22.4
2015-Jun-21 20:00N 39°18' E 009°48'2424.4 1018.3 22.2
2015-Jun-21 19:00N 38°54' E 009°54'3131.4 1017.2 22.2
2015-Jun-21 18:00N 38°24' E 010°06'2625.8 1015.7 21.1
2015-Jun-21 17:00N 38°00' E 010°18'2424.5 1015.2 21.2
2015-Jun-21 16:00N 37°36' E 010°24'2424.5 1014.7 21.9
2015-Jun-21 15:00N 37°12' E 010°30'2424.5 1015.0 22.5
2015-Jun-21 14:00N 36°48' E 010°24'0 0.0 1015.8 26.9
2015-Jun-21 07:00N 36°48' E 010°24'1918.6 1016.1 22.2
2015-Jun-21 06:00N 37°06' E 010°30'2424.0 1014.8 21.1
2015-Jun-21 05:00N 37°30' E 010°30'   1015.4 20.5
Track history (hours):
 
Tides and Currents Weather Stations Pressure Air Temp Water Temp Dewpoint Dewpoint Depression Visibility Wind Speed Wind Dir Waves Ship Positions

Callsign BAREU51 (name unknown)

Last reported at 2015-Jul-01 06:00 UTC. Time now 2015-Jul-01 06:34 UTC.
Position N 41°42' E 009°54'.

Barometer 1020.0 mb
Air temperature 24.7 ° C

Date/timePositionNaut miles runAvg speedWind from/ knotsBaromVisibWave heightAir tempDewpointWater temp
2015-Jul-01 06:00N 41°42' E 009°54'2424.4 1020.0 24.7
2015-Jul-01 05:00N 41°18' E 010°00'2424.4 1019.7 23.8
2015-Jul-01 04:00N 40°54' E 010°06'2424.4 1019.3 23.4
2015-Jul-01 03:00N 40°30' E 010°12'2424.0 1019.5 23.9
2015-Jul-01 02:00N 40°06' E 010°12'2424.0 1019.4 24.2
2015-Jul-01 01:00N 39°42' E 010°12'2424.4 1019.6 24.2
2015-Jul-01 00:00N 39°18' E 010°18'1818.0 1019.7 24.4
2015-Jun-30 23:00N 39°00' E 010°18'2424.5 1019.8 24.5
2015-Jun-30 22:00N 38°36' E 010°24'2424.0 1019.8 23.8
2015-Jun-30 21:00N 38°12' E 010°24'2424.5 1019.4 23.7
2015-Jun-30 20:00N 37°48' E 010°30'2424.0 1018.7 23.5
2015-Jun-30 19:00N 37°24' E 010°30'2424.5 1018.0 23.1
2015-Jun-30 18:00N 37°00' E 010°24'12 1.7 1017.1 23.8
2015-Jun-30 11:00N 36°48' E 010°24'2424.5 1020.1 26.1
2015-Jun-30 10:00N 37°12' E 010°30'1818.0 1020.0 24.2
2015-Jun-30 09:00N 37°30' E 010°30'2625.8 1020.0 23.8
2015-Jun-30 08:00N 37°54' E 010°18'2424.5 1019.7 23.9
2015-Jun-30 07:00N 38°18' E 010°12'2424.0 1019.6 23.5
2015-Jun-30 06:00N 38°42' E 010°12'1818.0 1019.2 24.0
2015-Jun-30 05:00N 39°00' E 010°12'2424.0 1018.6 23.7
2015-Jun-30 04:00N 39°24' E 010°12'2424.0 1018.0 23.7
2015-Jun-30 03:00N 39°48' E 010°12'2424.0 1018.1 23.9
2015-Jun-30 02:00N 40°12' E 010°12'2424.4 1018.3 23.5
2015-Jun-30 01:00N 40°36' E 010°06'2424.0 1018.6 23.3
2015-Jun-30 00:00N 41°00' E 010°06'1918.6 1019.1 23.1
2015-Jun-29 23:00N 41°18' E 010°00'2424.4 1019.1 23.2
2015-Jun-29 22:00N 41°42' E 009°54'2424.4 1019.3 23.8
2015-Jun-29 21:00N 42°06' E 009°48'2424.4 1019.0 23.9
2015-Jun-29 20:00N 42°30' E 009°42'2424.4 1018.4 25.0
2015-Jun-29 19:00N 42°54' E 009°36'2424.4 1018.0 25.1
2015-Jun-29 18:00N 43°18' E 009°30'2625.5 1018.4 25.5
2015-Jun-29 17:00N 43°42' E 009°18'3131.2 1018.4 25.0
2015-Jun-29 16:00N 44°12' E 009°06'15 2.5 1018.5 25.3
2015-Jun-29 10:00N 44°24' E 008°54'1514.8 1020.8 26.2
2015-Jun-29 09:00N 44°12' E 009°06'2424.4 1020.2 25.0
2015-Jun-29 08:00N 43°48' E 009°12'2020.0 1019.7 24.9
2015-Jun-29 07:00N 43°30' E 009°24'2625.5 1019.2 24.5
2015-Jun-29 06:00N 43°06' E 009°36'2424.4 1019.0 24.1
2015-Jun-29 05:00N 42°42' E 009°42'2424.4 1018.7 23.7
2015-Jun-29 04:00N 42°18' E 009°48'1818.0 1018.0 23.0
2015-Jun-29 03:00N 42°00' E 009°48'2424.4 1018.1 22.7
2015-Jun-29 02:00N 41°36' E 009°54'2424.4 1017.9 22.5
2015-Jun-29 01:00N 41°12' E 010°00'2424.4 1018.2 22.4
2015-Jun-29 00:00N 40°48' E 010°06'1918.6 1018.1 22.3
2015-Jun-28 23:00N 40°30' E 010°12'2424.0 1018.2 23.1
2015-Jun-28 22:00N 40°06' E 010°12'2424.4 1017.9 23.3
2015-Jun-28 21:00N 39°42' E 010°18'3030.0 1017.1 23.5
2015-Jun-28 20:00N 39°12' E 010°18'2424.4 1016.6 24.1
2015-Jun-28 19:00N 38°48' E 010°24'3030.0 1015.9 24.8
2015-Jun-28 18:00N 38°18' E 010°24'2424.0 1015.4 23.7
2015-Jun-28 17:00N 37°54' E 010°24'3030.4 1015.4 23.9
2015-Jun-28 16:00N 37°24' E 010°30'2424.0 1015.0 23.9
2015-Jun-28 15:00N 37°00' E 010°30'15 1.9 1014.7 26.0
2015-Jun-28 07:00N 36°48' E 010°18'1515.4 1018.2 25.6
2015-Jun-28 06:00N 37°00' E 010°30'2424.0 1017.0 22.5
2015-Jun-28 05:00N 37°24' E 010°30'1918.6 1016.9 22.3
2015-Jun-28 04:00N 37°42' E 010°24'2625.8 1016.5 22.0
2015-Jun-28 03:00N 38°06' E 010°12'2424.5 1015.9 21.9
2015-Jun-28 02:00N 38°30' E 010°06'2020.3 1016.1 23.3
2015-Jun-28 01:00N 38°48' E 009°54'2424.4 1016.2 24.8
2015-Jun-28 00:00N 39°12' E 009°48'2424.0 1016.2 24.6
2015-Jun-27 23:00N 39°36' E 009°48'2424.4 1016.0 23.6
2015-Jun-27 22:00N 40°00' E 009°54'2424.0 1016.3 23.5
2015-Jun-27 21:00N 40°24' E 009°54'2424.0 1016.4 23.4
2015-Jun-27 20:00N 40°48' E 009°54'1818.0 1016.1 23.4
2015-Jun-27 19:00N 41°06' E 009°54'3030.0 1016.2 23.4
2015-Jun-27 18:00N 41°36' E 009°54'2424.4 1014.0 23.8
2015-Jun-27 17:00N 42°00' E 009°48'3030.3 1016.0 25.2
2015-Jun-27 16:00N 42°30' E 009°42'2424.4 1016.3 24.6
2015-Jun-27 15:00N 42°54' E 009°36'3131.3 1017.1 24.7
2015-Jun-27 14:00N 43°24' E 009°24'2625.5 1017.1 23.7
2015-Jun-27 13:00N 43°48' E 009°12'2625.5 1017.1 23.8
2015-Jun-27 12:00N 44°12' E 009°00'12 0.7 1017.2 24.2
2015-Jun-26 18:00N 44°24' E 009°00'1918.5 1018.3 24.1
2015-Jun-26 17:00N 44°06' E 009°06'2625.5 1017.6 23.5
2015-Jun-26 16:00N 43°42' E 009°18'2625.5 1018.0 24.6
2015-Jun-26 15:00N 43°18' E 009°30'1918.5 1018.3 24.4
2015-Jun-26 14:00N 43°00' E 009°36'2424.4 1018.6 24.0
2015-Jun-26 13:00N 42°36' E 009°42'2424.4 1018.9 24.4
2015-Jun-26 12:00N 42°12' E 009°48'2424.0 1019.1 24.0
2015-Jun-26 11:00N 41°48' E 009°48'2424.0 1019.9 24.6
2015-Jun-26 10:00N 41°24' E 009°48'1918.6 1019.9 23.5
2015-Jun-26 09:00N 41°06' E 009°54'2424.0 1019.4 23.2
2015-Jun-26 08:00N 40°42' E 009°54'2424.0 1018.8 23.4
2015-Jun-26 07:00N 40°18' E 009°54'2424.0 1019.2 23.0
2015-Jun-26 06:00N 39°54' E 009°54'2424.4 1018.6 23.3
2015-Jun-26 05:00N 39°30' E 009°48'3030.0 1018.2 22.7
2015-Jun-26 04:00N 39°00' E 009°48'2625.8 1017.5 22.1
2015-Jun-26 03:00N 38°36' E 010°00'2625.8 1018.0 21.9
2015-Jun-26 02:00N 38°12' E 010°12'3131.5 1017.8 22.0
2015-Jun-26 01:00N 37°42' E 010°24'2424.5 1018.2 22.0
2015-Jun-26 00:00N 37°18' E 010°30'2424.5 1018.3 22.1
2015-Jun-25 23:00N 36°54' E 010°24'8 0.9 1019.2 22.2
2015-Jun-25 14:00N 36°48' E 010°18'1515.4 1018.9 24.6
2015-Jun-25 13:00N 37°00' E 010°30'3030.0 1019.3 24.8
2015-Jun-25 12:00N 37°30' E 010°30'2625.8 1019.3 24.7
2015-Jun-25 11:00N 37°54' E 010°18'2424.5 1019.3 24.2
2015-Jun-25 10:00N 38°18' E 010°12'2625.8 1019.4 23.5
2015-Jun-25 09:00N 38°42' E 010°00'2625.8 1019.3 23.2
2015-Jun-25 08:00N 39°06' E 009°48'2424.0 1019.2 23.1
2015-Jun-25 07:00N 39°30' E 009°48'2424.4 1019.8 23.4
2015-Jun-25 06:00N 39°54' E 009°54'2424.0 1020.0 23.6
2015-Jun-25 05:00N 40°18' E 009°54'3030.3 1019.8 22.2
2015-Jun-25 04:00N 40°48' E 010°00'4824.1 1019.8 21.8
2015-Jun-25 02:00N 41°36' E 009°54'3030.3 1019.4 21.5
2015-Jun-25 01:00N 42°06' E 009°48'2424.4 1019.7 22.6
2015-Jun-25 00:00N 42°30' E 009°42'2424.4 1019.7 22.9
2015-Jun-24 23:00N 42°54' E 009°36'2625.5 1019.2 23.3
2015-Jun-24 22:00N 43°18' E 009°24'2424.4 1019.1 23.3
2015-Jun-24 21:00N 43°42' E 009°18'2625.5 1019.9 23.4
2015-Jun-24 20:00N 44°06' E 009°06'20 3.3 1019.7 23.1
2015-Jun-24 14:00N 44°24' E 008°54'1514.8 1017.7 26.0
2015-Jun-24 13:00N 44°12' E 009°06'2424.4 1017.4 24.3
2015-Jun-24 12:00N 43°48' E 009°12'2020.0 1018.1 23.4
2015-Jun-24 11:00N 43°30' E 009°24'2625.5 1017.6 22.8
2015-Jun-24 10:00N 43°06' E 009°36'2424.4 1016.3 23.0
2015-Jun-24 09:00N 42°42' E 009°42'2424.4 1014.9 22.7
2015-Jun-24 08:00N 42°18' E 009°48'1818.0 1013.8 22.8
2015-Jun-24 07:00N 42°00' E 009°48'2424.4 1012.4 23.2
2015-Jun-24 06:00N 41°36' E 009°54'2424.0 1010.8 22.0
2015-Jun-24 05:00N 41°12' E 009°54'2424.4 1010.9 22.7
2015-Jun-24 04:00N 40°48' E 010°00'1818.0 1011.2 23.6
2015-Jun-24 03:00N 40°30' E 010°00'2424.4 1011.1 23.8
2015-Jun-24 02:00N 40°06' E 009°54'2424.0 1011.5 23.0
2015-Jun-24 01:00N 39°42' E 009°54'2424.4 1010.4 24.7
2015-Jun-24 00:00N 39°18' E 009°48'1918.6 1011.3 24.4
2015-Jun-23 23:00N 39°00' E 009°54'2424.5 1011.7 23.1
2015-Jun-23 22:00N 38°36' E 010°00'2625.8 1012.6 22.3
2015-Jun-23 21:00N 38°12' E 010°12'1918.6 1013.0 22.4
2015-Jun-23 20:00N 37°54' E 010°18'2625.8 1012.5 22.4
2015-Jun-23 19:00N 37°30' E 010°30'2424.0 1012.0 22.8
2015-Jun-23 18:00N 37°06' E 010°30'13 1.6 1011.5 24.7
2015-Jun-23 10:00N 36°54' E 010°24'1918.6 1012.6 28.9
2015-Jun-23 09:00N 37°12' E 010°30'2424.5 1012.8 24.4
2015-Jun-23 08:00N 37°36' E 010°24'2424.5 1012.4 22.9
2015-Jun-23 07:00N 38°00' E 010°18'2020.3 1012.1 22.5
2015-Jun-23 06:00N 38°18' E 010°06'2424.5 1012.6 22.3
2015-Jun-23 05:00N 38°42' E 010°00'2625.8 1012.7 22.1
2015-Jun-23 04:00N 39°06' E 009°48'2424.0 1013.1 21.6
2015-Jun-23 03:00N 39°30' E 009°48'1918.6 1012.6 22.2
2015-Jun-23 02:00N 39°48' E 009°54'2424.0 1013.0 22.0
2015-Jun-23 01:00N 40°12' E 009°54'2424.4 1013.6 22.1
2015-Jun-23 00:00N 40°36' E 010°00'2424.4 1013.9 22.0
2015-Jun-22 23:00N 41°00' E 009°54'2424.0 1014.3 22.0
2015-Jun-22 22:00N 41°24' E 009°54'2424.4 1012.7 22.2
2015-Jun-22 21:00N 41°48' E 009°48'1818.0 1012.6 23.3
2015-Jun-22 20:00N 42°06' E 009°48'2424.4 1013.8 22.5
2015-Jun-22 19:00N 42°30' E 009°42'2424.4 1013.5 22.6
2015-Jun-22 18:00N 42°54' E 009°36'2424.4 1013.7 23.0
2015-Jun-22 17:00N 43°18' E 009°30'2625.5 1014.2 23.2
2015-Jun-22 16:00N 43°42' E 009°18'3131.2 1013.2 22.6
2015-Jun-22 15:00N 44°12' E 009°06'15 3.7 1013.6 23.8
2015-Jun-22 11:00N 44°24' E 008°54'0 0.0 1018.2 22.8
2015-Jun-22 10:00N 44°24' E 008°54'1514.8 1018.0 21.2
2015-Jun-22 09:00N 44°12' E 009°06'2424.4 1016.7 24.6
2015-Jun-22 08:00N 43°48' E 009°12'2020.0 1016.9 24.3
2015-Jun-22 07:00N 43°30' E 009°24'2625.5 1016.8 24.2
2015-Jun-22 06:00N 43°06' E 009°36'2424.4 1016.8 23.2
2015-Jun-22 05:00N 42°42' E 009°42'2424.4 1016.9 22.6
2015-Jun-22 04:00N 42°18' E 009°48'2424.0 1017.0 21.3
2015-Jun-22 03:00N 41°54' E 009°48'1918.5 1016.8 21.1
2015-Jun-22 02:00N 41°36' E 009°54'2424.0 1017.0 21.5
2015-Jun-22 01:00N 41°12' E 009°54'2424.4 1017.2 21.9
2015-Jun-22 00:00N 40°48' E 010°00'2424.4 1017.5 21.7
2015-Jun-21 23:00N 40°24' E 009°54'2424.0 1017.8 21.7
2015-Jun-21 22:00N 40°00' E 009°54'2424.4 1018.1 22.3
2015-Jun-21 21:00N 39°36' E 009°48'1818.0 1018.5 22.4
2015-Jun-21 20:00N 39°18' E 009°48'2424.4 1018.3 22.2
2015-Jun-21 19:00N 38°54' E 009°54'3131.4 1017.2 22.2
2015-Jun-21 18:00N 38°24' E 010°06'2625.8 1015.7 21.1
2015-Jun-21 17:00N 38°00' E 010°18'2424.5 1015.2 21.2
2015-Jun-21 16:00N 37°36' E 010°24'2424.5 1014.7 21.9
2015-Jun-21 15:00N 37°12' E 010°30'2424.5 1015.0 22.5
2015-Jun-21 14:00N 36°48' E 010°24'0 0.0 1015.8 26.9
2015-Jun-21 07:00N 36°48' E 010°24'1918.6 1016.1 22.2
2015-Jun-21 06:00N 37°06' E 010°30'2424.0 1014.8 21.1
2015-Jun-21 05:00N 37°30' E 010°30'   1015.4 20.5

Dump ship's entire track history